sensor_id;sensor_type;location;lat;lon;timestamp;pressure;altitude;pressure_sealevel;temperature;humidity
79048;BME280;68680;50.764;6.120;2023-08-06T00:01:52;98270.97;;;13.56;100.00
79048;BME280;68680;50.764;6.120;2023-08-06T00:04:17;98274.44;;;13.62;100.00
79048;BME280;68680;50.764;6.120;2023-08-06T00:06:44;98276.31;;;13.61;100.00
79048;BME280;68680;50.764;6.120;2023-08-06T00:09:10;98278.72;;;13.68;100.00
79048;BME280;68680;50.764;6.120;2023-08-06T00:11:36;98276.56;;;13.70;100.00
79048;BME280;68680;50.764;6.120;2023-08-06T00:14:02;98269.03;;;13.77;100.00
79048;BME280;68680;50.764;6.120;2023-08-06T00:16:27;98266.34;;;13.82;100.00
79048;BME280;68680;50.764;6.120;2023-08-06T00:18:53;98262.06;;;13.76;100.00
79048;BME280;68680;50.764;6.120;2023-08-06T00:21:19;98264.75;;;13.71;100.00
79048;BME280;68680;50.764;6.120;2023-08-06T00:23:46;98254.84;;;13.71;100.00
79048;BME280;68680;50.764;6.120;2023-08-06T00:26:12;98257.81;;;13.65;100.00
79048;BME280;68680;50.764;6.120;2023-08-06T00:28:38;98252.47;;;13.60;100.00
79048;BME280;68680;50.764;6.120;2023-08-06T00:31:03;98255.13;;;13.65;100.00
79048;BME280;68680;50.764;6.120;2023-08-06T00:33:29;98246.03;;;13.61;100.00
79048;BME280;68680;50.764;6.120;2023-08-06T00:35:55;98255.16;;;13.60;100.00
79048;BME280;68680;50.764;6.120;2023-08-06T00:38:21;98251.69;;;13.54;100.00
79048;BME280;68680;50.764;6.120;2023-08-06T00:40:48;98255.72;;;13.56;100.00
79048;BME280;68680;50.764;6.120;2023-08-06T00:43:14;98253.28;;;13.60;100.00
79048;BME280;68680;50.764;6.120;2023-08-06T00:45:39;98249.53;;;13.61;100.00
79048;BME280;68680;50.764;6.120;2023-08-06T00:48:06;98247.13;;;13.54;100.00
79048;BME280;68680;50.764;6.120;2023-08-06T00:50:31;98248.75;;;13.55;100.00
79048;BME280;68680;50.764;6.120;2023-08-06T00:52:58;98246.06;;;13.45;100.00
79048;BME280;68680;50.764;6.120;2023-08-06T00:55:25;98248.75;;;13.45;100.00
79048;BME280;68680;50.764;6.120;2023-08-06T00:57:53;98253.06;;;13.41;100.00
79048;BME280;68680;50.764;6.120;2023-08-06T01:00:20;98258.66;;;13.40;100.00
79048;BME280;68680;50.764;6.120;2023-08-06T01:02:48;98258.94;;;13.43;100.00
79048;BME280;68680;50.764;6.120;2023-08-06T01:05:14;98257.91;;;13.39;100.00
79048;BME280;68680;50.764;6.120;2023-08-06T01:07:56;98253.31;;;13.40;100.00
79048;BME280;68680;50.764;6.120;2023-08-06T01:10:40;98252.00;;;13.37;100.00
79048;BME280;68680;50.764;6.120;2023-08-06T01:13:23;98246.63;;;13.42;100.00
79048;BME280;68680;50.764;6.120;2023-08-06T01:15:54;98260.28;;;13.46;100.00
79048;BME280;68680;50.764;6.120;2023-08-06T01:18:20;98265.91;;;13.49;100.00
79048;BME280;68680;50.764;6.120;2023-08-06T01:20:48;98256.00;;;13.40;100.00
79048;BME280;68680;50.764;6.120;2023-08-06T01:23:13;98265.63;;;13.46;100.00
79048;BME280;68680;50.764;6.120;2023-08-06T01:25:50;98252.50;;;13.49;100.00
79048;BME280;68680;50.764;6.120;2023-08-06T01:28:30;98247.16;;;13.44;100.00
79048;BME280;68680;50.764;6.120;2023-08-06T01:31:01;98242.31;;;13.46;100.00
79048;BME280;68680;50.764;6.120;2023-08-06T01:33:34;98241.25;;;13.47;100.00
79048;BME280;68680;50.764;6.120;2023-08-06T01:36:02;98238.03;;;13.45;100.00
79048;BME280;68680;50.764;6.120;2023-08-06T01:38:29;98238.34;;;13.39;100.00
79048;BME280;68680;50.764;6.120;2023-08-06T01:40:55;98243.19;;;13.32;100.00
79048;BME280;68680;50.764;6.120;2023-08-06T01:43:21;98238.34;;;13.39;100.00
79048;BME280;68680;50.764;6.120;2023-08-06T01:45:46;98234.59;;;13.35;100.00
79048;BME280;68680;50.764;6.120;2023-08-06T01:48:12;98229.53;;;13.33;100.00
79048;BME280;68680;50.764;6.120;2023-08-06T01:50:38;98228.97;;;13.36;100.00
79048;BME280;68680;50.764;6.120;2023-08-06T01:53:05;98226.03;;;13.38;100.00
79048;BME280;68680;50.764;6.120;2023-08-06T01:55:31;98224.66;;;13.40;100.00
79048;BME280;68680;50.764;6.120;2023-08-06T01:57:57;98223.59;;;13.41;100.00
79048;BME280;68680;50.764;6.120;2023-08-06T02:00:22;98222.53;;;13.42;100.00
79048;BME280;68680;50.764;6.120;2023-08-06T02:02:48;98227.88;;;13.42;100.00
79048;BME280;68680;50.764;6.120;2023-08-06T02:05:14;98224.38;;;13.47;100.00
79048;BME280;68680;50.764;6.120;2023-08-06T02:07:40;98233.22;;;13.47;100.00
79048;BME280;68680;50.764;6.120;2023-08-06T02:10:08;98230.28;;;13.49;100.00
79048;BME280;68680;50.764;6.120;2023-08-06T02:12:34;98225.44;;;13.46;100.00
79048;BME280;68680;50.764;6.120;2023-08-06T02:14:59;98224.38;;;13.47;100.00
79048;BME280;68680;50.764;6.120;2023-08-06T02:17:25;98226.53;;;13.50;100.00
79048;BME280;68680;50.764;6.120;2023-08-06T02:19:51;98228.66;;;13.48;100.00
79048;BME280;68680;50.764;6.120;2023-08-06T02:22:17;98225.72;;;13.49;100.00
79048;BME280;68680;50.764;6.120;2023-08-06T02:24:42;98219.81;;;13.47;100.00
79048;BME280;68680;50.764;6.120;2023-08-06T02:27:10;98223.84;;;13.50;100.00
79048;BME280;68680;50.764;6.120;2023-08-06T02:29:35;98221.97;;;13.55;100.00
79048;BME280;68680;50.764;6.120;2023-08-06T02:32:01;98213.34;;;13.58;100.00
79048;BME280;68680;50.764;6.120;2023-08-06T02:34:27;98215.22;;;13.58;100.00
79048;BME280;68680;50.764;6.120;2023-08-06T02:36:53;98213.09;;;13.60;100.00
79048;BME280;68680;50.764;6.120;2023-08-06T02:39:19;98212.25;;;13.65;100.00
79048;BME280;68680;50.764;6.120;2023-08-06T02:41:45;98206.41;;;13.63;100.00
79048;BME280;68680;50.764;6.120;2023-08-06T02:44:12;98206.41;;;13.63;100.00
79048;BME280;68680;50.764;6.120;2023-08-06T02:46:37;98196.22;;;13.60;100.00
79048;BME280;68680;50.764;6.120;2023-08-06T02:49:03;98208.81;;;13.59;100.00
79048;BME280;68680;50.764;6.120;2023-08-06T02:51:29;98204.53;;;13.58;100.00
79048;BME280;68680;50.764;6.120;2023-08-06T02:53:55;98195.44;;;13.54;100.00
79048;BME280;68680;50.764;6.120;2023-08-06T02:56:20;98198.38;;;13.52;100.00
79048;BME280;68680;50.764;6.120;2023-08-06T02:58:46;98180.44;;;13.53;100.00
79048;BME280;68680;50.764;6.120;2023-08-06T03:01:13;98186.84;;;13.52;100.00
79048;BME280;68680;50.764;6.120;2023-08-06T03:03:39;98178.56;;;13.53;100.00
79048;BME280;68680;50.764;6.120;2023-08-06T03:06:05;98183.94;;;13.48;100.00
79048;BME280;68680;50.764;6.120;2023-08-06T03:08:31;98184.19;;;13.47;100.00
79048;BME280;68680;50.764;6.120;2023-08-06T03:10:57;98183.09;;;13.53;100.00
79048;BME280;68680;50.764;6.120;2023-08-06T03:13:22;98174.28;;;13.52;100.00
79048;BME280;68680;50.764;6.120;2023-08-06T03:15:52;98184.72;;;13.54;100.00
79048;BME280;68680;50.764;6.120;2023-08-06T03:18:20;98180.69;;;13.51;100.00
79048;BME280;68680;50.764;6.120;2023-08-06T03:20:45;98176.69;;;13.54;100.00
79048;BME280;68680;50.764;6.120;2023-08-06T03:23:11;98177.72;;;13.58;100.00
79048;BME280;68680;50.764;6.120;2023-08-06T03:25:37;98172.91;;;13.60;100.00
79048;BME280;68680;50.764;6.120;2023-08-06T03:28:03;98178.53;;;13.58;100.00
79048;BME280;68680;50.764;6.120;2023-08-06T03:30:29;98182.28;;;13.63;100.00
79048;BME280;68680;50.764;6.120;2023-08-06T03:32:55;98176.13;;;13.57;100.00
79048;BME280;68680;50.764;6.120;2023-08-06T03:35:22;98183.34;;;13.62;100.00
79048;BME280;68680;50.764;6.120;2023-08-06T03:37:49;98175.03;;;13.58;100.00
79048;BME280;68680;50.764;6.120;2023-08-06T03:40:15;98179.09;;;13.55;100.00
79048;BME280;68680;50.764;6.120;2023-08-06T03:42:40;98180.13;;;13.60;100.00
79048;BME280;68680;50.764;6.120;2023-08-06T03:45:08;98176.66;;;13.59;100.00
79048;BME280;68680;50.764;6.120;2023-08-06T03:47:34;98174.25;;;13.63;100.00
79048;BME280;68680;50.764;6.120;2023-08-06T03:49:59;98173.94;;;13.74;100.00
79048;BME280;68680;50.764;6.120;2023-08-06T03:52:26;98176.34;;;13.71;100.00
79048;BME280;68680;50.764;6.120;2023-08-06T03:54:52;98170.44;;;13.69;100.00
79048;BME280;68680;50.764;6.120;2023-08-06T03:57:18;98164.00;;;13.70;100.00
79048;BME280;68680;50.764;6.120;2023-08-06T03:59:44;98173.38;;;13.72;100.00
79048;BME280;68680;50.764;6.120;2023-08-06T04:02:09;98173.94;;;13.69;100.00
79048;BME280;68680;50.764;6.120;2023-08-06T04:04:35;98178.75;;;13.72;100.00
79048;BME280;68680;50.764;6.120;2023-08-06T04:07:01;98176.06;;;13.72;100.00
79048;BME280;68680;50.764;6.120;2023-08-06T04:09:29;98173.66;;;13.71;100.00
79048;BME280;68680;50.764;6.120;2023-08-06T04:11:55;98176.34;;;13.71;100.00
79048;BME280;68680;50.764;6.120;2023-08-06T04:14:21;98172.81;;;13.75;100.00
79048;BME280;68680;50.764;6.120;2023-08-06T04:16:47;98176.84;;;13.78;100.00
79048;BME280;68680;50.764;6.120;2023-08-06T04:19:13;98172.03;;;13.75;100.00
79048;BME280;68680;50.764;6.120;2023-08-06T04:21:39;98185.44;;;13.70;100.00
79048;BME280;68680;50.764;6.120;2023-08-06T04:24:04;98180.06;;;13.75;100.00
79048;BME280;68680;50.764;6.120;2023-08-06T04:26:31;98187.06;;;13.71;100.00
79048;BME280;68680;50.764;6.120;2023-08-06T04:28:57;98180.34;;;13.73;100.00
79048;BME280;68680;50.764;6.120;2023-08-06T04:31:23;98188.63;;;13.77;100.00
79048;BME280;68680;50.764;6.120;2023-08-06T04:33:49;98182.78;;;13.70;100.00
79048;BME280;68680;50.764;6.120;2023-08-06T04:36:15;98187.06;;;13.71;100.00
79048;BME280;68680;50.764;6.120;2023-08-06T04:38:40;98191.88;;;13.74;100.00
79048;BME280;68680;50.764;6.120;2023-08-06T04:41:06;98189.72;;;13.71;100.00
79048;BME280;68680;50.764;6.120;2023-08-06T04:43:33;98191.09;;;13.68;100.00
79048;BME280;68680;50.764;6.120;2023-08-06T04:45:59;98193.75;;;13.73;100.00
79048;BME280;68680;50.764;6.120;2023-08-06T04:48:25;98190.28;;;13.73;100.00
79048;BME280;68680;50.764;6.120;2023-08-06T04:50:51;98200.72;;;13.74;100.00
79048;BME280;68680;50.764;6.120;2023-08-06T04:53:17;98198.34;;;13.68;100.00
79048;BME280;68680;50.764;6.120;2023-08-06T04:55:43;98205.31;;;13.64;100.00
79048;BME280;68680;50.764;6.120;2023-08-06T04:58:10;98202.34;;;13.65;100.00
79048;BME280;68680;50.764;6.120;2023-08-06T05:00:37;98205.53;;;13.72;100.00
79048;BME280;68680;50.764;6.120;2023-08-06T05:03:03;98215.22;;;13.68;100.00
79048;BME280;68680;50.764;6.120;2023-08-06T05:05:29;98209.59;;;13.65;100.00
79048;BME280;68680;50.764;6.120;2023-08-06T05:07:56;98216.00;;;13.69;100.00
79048;BME280;68680;50.764;6.120;2023-08-06T05:10:25;98214.38;;;13.73;100.00
79048;BME280;68680;50.764;6.120;2023-08-06T05:12:50;98209.28;;;13.76;100.00
79048;BME280;68680;50.764;6.120;2023-08-06T05:15:16;98211.44;;;13.74;100.00
79048;BME280;68680;50.764;6.120;2023-08-06T05:17:43;98218.94;;;13.72;100.00
79048;BME280;68680;50.764;6.120;2023-08-06T05:20:11;98216.81;;;13.74;100.00
79048;BME280;68680;50.764;6.120;2023-08-06T05:22:37;98216.78;;;13.79;100.00
79048;BME280;68680;50.764;6.120;2023-08-06T05:25:03;98221.53;;;13.87;100.00
79048;BME280;68680;50.764;6.120;2023-08-06T05:27:29;98222.91;;;13.85;100.00
79048;BME280;68680;50.764;6.120;2023-08-06T05:29:55;98229.34;;;13.84;100.00
79048;BME280;68680;50.764;6.120;2023-08-06T05:32:21;98232.81;;;13.89;100.00
79048;BME280;68680;50.764;6.120;2023-08-06T05:34:48;98232.28;;;13.82;100.00
79048;BME280;68680;50.764;6.120;2023-08-06T05:37:14;98236.31;;;13.85;100.00
79048;BME280;68680;50.764;6.120;2023-08-06T05:39:40;98247.53;;;13.92;100.00
79048;BME280;68680;50.764;6.120;2023-08-06T05:42:06;98244.34;;;13.90;100.00
79048;BME280;68680;50.764;6.120;2023-08-06T05:44:32;98247.53;;;13.87;100.00
79048;BME280;68680;50.764;6.120;2023-08-06T05:46:58;98252.66;;;13.83;100.00
79048;BME280;68680;50.764;6.120;2023-08-06T05:49:24;98249.41;;;13.96;100.00
79048;BME280;68680;50.764;6.120;2023-08-06T05:51:51;98252.41;;;13.85;100.00
79048;BME280;68680;50.764;6.120;2023-08-06T05:54:17;98258.03;;;13.83;100.00
79048;BME280;68680;50.764;6.120;2023-08-06T05:56:42;98255.06;;;13.85;100.00
79048;BME280;68680;50.764;6.120;2023-08-06T05:59:08;98255.34;;;13.83;100.00
79048;BME280;68680;50.764;6.120;2023-08-06T06:01:34;98254.53;;;13.83;100.00
79048;BME280;68680;50.764;6.120;2023-08-06T06:03:59;98263.38;;;13.83;100.00
79048;BME280;68680;50.764;6.120;2023-08-06T06:06:25;98266.34;;;13.82;100.00
79048;BME280;68680;50.764;6.120;2023-08-06T06:08:53;98267.41;;;13.86;100.00
79048;BME280;68680;50.764;6.120;2023-08-06T06:11:18;98266.06;;;13.83;100.00
79048;BME280;68680;50.764;6.120;2023-08-06T06:13:44;98270.59;;;13.88;100.00
79048;BME280;68680;50.764;6.120;2023-08-06T06:16:10;98274.63;;;13.90;100.00
79048;BME280;68680;50.764;6.120;2023-08-06T06:18:36;98281.59;;;13.91;100.00
79048;BME280;68680;50.764;6.120;2023-08-06T06:21:01;98280.25;;;13.89;100.00
79048;BME280;68680;50.764;6.120;2023-08-06T06:23:27;98281.84;;;13.90;100.00
79048;BME280;68680;50.764;6.120;2023-08-06T06:25:54;98287.47;;;13.88;100.00
79048;BME280;68680;50.764;6.120;2023-08-06T06:28:20;98289.91;;;13.85;100.00
79048;BME280;68680;50.764;6.120;2023-08-06T06:30:46;98295.78;;;13.87;100.00
79048;BME280;68680;50.764;6.120;2023-08-06T06:33:11;98294.72;;;13.88;100.00
79048;BME280;68680;50.764;6.120;2023-08-06T06:35:37;98300.63;;;13.85;100.00
79048;BME280;68680;50.764;6.120;2023-08-06T06:38:03;98299.28;;;13.87;100.00
79048;BME280;68680;50.764;6.120;2023-08-06T06:40:29;98307.28;;;13.92;100.00
79048;BME280;68680;50.764;6.120;2023-08-06T06:42:56;98305.94;;;14.00;100.00
79048;BME280;68680;50.764;6.120;2023-08-06T06:45:22;98312.38;;;13.99;100.00
79048;BME280;68680;50.764;6.120;2023-08-06T06:47:48;98311.53;;;14.04;100.00
79048;BME280;68680;50.764;6.120;2023-08-06T06:50:13;98309.66;;;14.04;100.00
79048;BME280;68680;50.764;6.120;2023-08-06T06:52:39;98311.03;;;14.02;100.00
79048;BME280;68680;50.764;6.120;2023-08-06T06:55:05;98314.78;;;14.01;100.00
79048;BME280;68680;50.764;6.120;2023-08-06T06:57:31;98319.88;;;14.02;100.00
79048;BME280;68680;50.764;6.120;2023-08-06T06:59:58;98324.41;;;14.07;100.00
79048;BME280;68680;50.764;6.120;2023-08-06T07:02:24;98322.81;;;14.06;100.00
79048;BME280;68680;50.764;6.120;2023-08-06T07:04:50;98330.56;;;14.12;100.00
79048;BME280;68680;50.764;6.120;2023-08-06T07:07:16;98319.84;;;14.12;100.00
79048;BME280;68680;50.764;6.120;2023-08-06T07:09:42;98330.53;;;14.17;100.00
79048;BME280;68680;50.764;6.120;2023-08-06T07:12:08;98326.78;;;14.18;100.00
79048;BME280;68680;50.764;6.120;2023-08-06T07:14:34;98333.22;;;14.17;100.00
79048;BME280;68680;50.764;6.120;2023-08-06T07:17:01;98330.00;;;14.20;100.00
79048;BME280;68680;50.764;6.120;2023-08-06T07:19:26;98334.56;;;14.10;100.00
79048;BME280;68680;50.764;6.120;2023-08-06T07:21:52;98339.94;;;14.10;100.00
79048;BME280;68680;50.764;6.120;2023-08-06T07:24:18;98341.84;;;13.99;100.00
79048;BME280;68680;50.764;6.120;2023-08-06T07:26:44;98353.41;;;13.89;100.00
79048;BME280;68680;50.764;6.120;2023-08-06T07:29:09;98360.63;;;13.99;100.00
79048;BME280;68680;50.764;6.120;2023-08-06T07:31:35;98363.03;;;14.01;100.00
79048;BME280;68680;50.764;6.120;2023-08-06T07:34:02;98367.63;;;13.90;100.00
79048;BME280;68680;50.764;6.120;2023-08-06T07:36:28;98363.34;;;13.84;100.00
79048;BME280;68680;50.764;6.120;2023-08-06T07:38:54;98370.31;;;13.85;100.00
79048;BME280;68680;50.764;6.120;2023-08-06T07:41:20;98374.59;;;13.91;100.00
79048;BME280;68680;50.764;6.120;2023-08-06T07:43:45;98369.75;;;13.93;100.00
79048;BME280;68680;50.764;6.120;2023-08-06T07:46:11;98381.53;;;13.92;100.00
79048;BME280;68680;50.764;6.120;2023-08-06T07:48:37;98381.56;;;13.82;100.00
79048;BME280;68680;50.764;6.120;2023-08-06T07:51:04;98383.16;;;13.88;100.00
79048;BME280;68680;50.764;6.120;2023-08-06T07:53:30;98390.19;;;13.74;100.00
79048;BME280;68680;50.764;6.120;2023-08-06T07:55:56;98402.50;;;13.54;100.00
79048;BME280;68680;50.764;6.120;2023-08-06T07:58:24;98420.72;;;13.47;100.00
79048;BME280;68680;50.764;6.120;2023-08-06T08:00:50;98415.38;;;13.32;100.00
79048;BME280;68680;50.764;6.120;2023-08-06T08:03:16;98412.41;;;13.29;100.00
79048;BME280;68680;50.764;6.120;2023-08-06T08:05:44;98420.97;;;13.15;100.00
79048;BME280;68680;50.764;6.120;2023-08-06T08:08:11;98423.88;;;13.09;100.00
79048;BME280;68680;50.764;6.120;2023-08-06T08:10:37;98435.09;;;13.11;100.00
79048;BME280;68680;50.764;6.120;2023-08-06T08:13:03;98440.78;;;13.14;100.00
79048;BME280;68680;50.764;6.120;2023-08-06T08:15:29;98444.75;;;13.07;100.00
79048;BME280;68680;50.764;6.120;2023-08-06T08:17:55;98454.38;;;13.03;100.00
79048;BME280;68680;50.764;6.120;2023-08-06T08:20:21;98455.41;;;12.92;100.00
79048;BME280;68680;50.764;6.120;2023-08-06T08:22:47;98469.59;;;12.92;100.00
79048;BME280;68680;50.764;6.120;2023-08-06T08:25:15;98472.28;;;12.92;100.00
79048;BME280;68680;50.764;6.120;2023-08-06T08:27:41;98470.41;;;12.93;100.00
79048;BME280;68680;50.764;6.120;2023-08-06T08:30:08;98478.94;;;12.90;100.00
79048;BME280;68680;50.764;6.120;2023-08-06T08:32:34;98481.06;;;12.88;100.00
79048;BME280;68680;50.764;6.120;2023-08-06T08:35:00;98486.97;;;12.90;100.00
79048;BME280;68680;50.764;6.120;2023-08-06T08:37:25;98489.94;;;12.93;100.00
79048;BME280;68680;50.764;6.120;2023-08-06T08:39:51;98480.28;;;12.87;100.00
79048;BME280;68680;50.764;6.120;2023-08-06T08:42:19;98490.97;;;12.87;100.00
79048;BME280;68680;50.764;6.120;2023-08-06T08:44:45;98493.41;;;12.94;100.00
79048;BME280;68680;50.764;6.120;2023-08-06T08:47:11;98499.31;;;12.96;100.00
79048;BME280;68680;50.764;6.120;2023-08-06T08:49:40;98512.94;;;12.94;100.00
79048;BME280;68680;50.764;6.120;2023-08-06T08:52:07;98508.41;;;13.00;100.00
79048;BME280;68680;50.764;6.120;2023-08-06T08:54:38;98523.41;;;12.96;100.00
79048;BME280;68680;50.764;6.120;2023-08-06T08:57:04;98522.84;;;12.89;100.00
79048;BME280;68680;50.764;6.120;2023-08-06T08:59:33;98535.16;;;12.90;100.00
79048;BME280;68680;50.764;6.120;2023-08-06T09:02:00;98527.09;;;12.80;100.00
79048;BME280;68680;50.764;6.120;2023-08-06T09:04:29;98532.91;;;12.71;100.00
79048;BME280;68680;50.764;6.120;2023-08-06T09:06:58;98540.44;;;12.74;100.00
79048;BME280;68680;50.764;6.120;2023-08-06T09:09:31;98548.16;;;12.71;100.00
79048;BME280;68680;50.764;6.120;2023-08-06T09:12:01;98553.00;;;12.74;100.00
79048;BME280;68680;50.764;6.120;2023-08-06T09:14:28;98563.72;;;12.74;100.00
79048;BME280;68680;50.764;6.120;2023-08-06T09:16:56;98566.91;;;12.71;100.00
79048;BME280;68680;50.764;6.120;2023-08-06T09:19:22;98559.44;;;12.78;100.00
79048;BME280;68680;50.764;6.120;2023-08-06T09:21:51;98579.81;;;12.84;100.00
79048;BME280;68680;50.764;6.120;2023-08-06T09:24:17;98568.34;;;12.94;100.00
79048;BME280;68680;50.764;6.120;2023-08-06T09:26:44;98580.91;;;12.88;100.00
79048;BME280;68680;50.764;6.120;2023-08-06T09:29:11;98583.84;;;12.87;100.00
79048;BME280;68680;50.764;6.120;2023-08-06T09:31:41;98591.09;;;12.91;100.00
79048;BME280;68680;50.764;6.120;2023-08-06T09:34:15;98594.59;;;12.97;100.00
79048;BME280;68680;50.764;6.120;2023-08-06T09:36:41;98591.69;;;12.98;100.00
79048;BME280;68680;50.764;6.120;2023-08-06T09:39:13;98598.06;;;12.92;100.00
79048;BME280;68680;50.764;6.120;2023-08-06T09:41:39;98610.91;;;12.95;100.00
79048;BME280;68680;50.764;6.120;2023-08-06T09:44:05;98613.13;;;13.03;100.00
79048;BME280;68680;50.764;6.120;2023-08-06T09:46:32;98618.69;;;12.97;100.00
79048;BME280;68680;50.764;6.120;2023-08-06T09:48:58;98615.72;;;12.93;100.00
79048;BME280;68680;50.764;6.120;2023-08-06T09:51:25;98616.03;;;12.97;100.00
79048;BME280;68680;50.764;6.120;2023-08-06T09:53:52;98626.75;;;13.02;100.00
79048;BME280;68680;50.764;6.120;2023-08-06T09:56:18;98625.97;;;13.06;100.00
79048;BME280;68680;50.764;6.120;2023-08-06T09:58:47;98633.00;;;13.12;100.00
79048;BME280;68680;50.764;6.120;2023-08-06T10:01:15;98628.78;;;13.22;100.00
79048;BME280;68680;50.764;6.120;2023-08-06T10:03:42;98633.31;;;13.21;100.00
79048;BME280;68680;50.764;6.120;2023-08-06T10:06:09;98640.78;;;13.19;100.00
79048;BME280;68680;50.764;6.120;2023-08-06T10:08:36;98644.53;;;13.18;100.00
79048;BME280;68680;50.764;6.120;2023-08-06T10:11:03;98650.72;;;13.24;100.00
79048;BME280;68680;50.764;6.120;2023-08-06T10:13:31;98651.53;;;13.24;100.00
79048;BME280;68680;50.764;6.120;2023-08-06T10:15:58;98662.22;;;13.19;100.00
79048;BME280;68680;50.764;6.120;2023-08-06T10:18:25;98661.69;;;13.22;100.00
79048;BME280;68680;50.764;6.120;2023-08-06T10:20:51;98659.75;;;13.12;100.00
79048;BME280;68680;50.764;6.120;2023-08-06T10:23:17;98663.28;;;13.18;100.00
79048;BME280;68680;50.764;6.120;2023-08-06T10:25:53;98664.34;;;13.17;100.00
79048;BME280;68680;50.764;6.120;2023-08-06T10:28:19;98662.50;;;13.23;100.00
79048;BME280;68680;50.764;6.120;2023-08-06T10:30:46;98662.25;;;13.29;100.00
79048;BME280;68680;50.764;6.120;2023-08-06T10:33:13;98660.13;;;13.26;100.00
79048;BME280;68680;50.764;6.120;2023-08-06T10:35:42;98663.63;;;13.37;100.00
79048;BME280;68680;50.764;6.120;2023-08-06T10:38:09;98663.09;;;13.35;100.00
79048;BME280;68680;50.764;6.120;2023-08-06T10:40:36;98670.81;;;13.26;100.00
79048;BME280;68680;50.764;6.120;2023-08-06T10:43:04;98671.66;;;13.32;100.00
79048;BME280;68680;50.764;6.120;2023-08-06T10:45:35;98671.41;;;13.38;100.00
79048;BME280;68680;50.764;6.120;2023-08-06T10:48:01;98673.81;;;13.40;100.00
79048;BME280;68680;50.764;6.120;2023-08-06T10:50:27;98679.72;;;13.42;100.00
79048;BME280;68680;50.764;6.120;2023-08-06T10:52:53;98677.84;;;13.42;100.00
79048;BME280;68680;50.764;6.120;2023-08-06T10:55:25;98678.41;;;13.39;100.00
79048;BME280;68680;50.764;6.120;2023-08-06T10:57:51;98686.97;;;13.41;100.00
79048;BME280;68680;50.764;6.120;2023-08-06T11:00:18;98682.69;;;13.45;100.00
79048;BME280;68680;50.764;6.120;2023-08-06T11:02:46;98689.63;;;13.36;100.00
79048;BME280;68680;50.764;6.120;2023-08-06T11:05:12;98685.34;;;13.40;100.00
79048;BME280;68680;50.764;6.120;2023-08-06T11:07:38;98681.34;;;13.43;100.00
79048;BME280;68680;50.764;6.120;2023-08-06T11:10:07;98690.50;;;13.57;100.00
79048;BME280;68680;50.764;6.120;2023-08-06T11:12:33;98691.56;;;13.51;100.00
79048;BME280;68680;50.764;6.120;2023-08-06T11:15:00;98694.53;;;13.60;100.00
79048;BME280;68680;50.764;6.120;2023-08-06T11:17:29;98697.47;;;13.58;100.00
79048;BME280;68680;50.764;6.120;2023-08-06T11:19:56;98701.75;;;13.54;100.00
79048;BME280;68680;50.764;6.120;2023-08-06T11:22:22;98694.25;;;13.51;100.00
79048;BME280;68680;50.764;6.120;2023-08-06T11:24:48;98695.00;;;13.46;100.00
79048;BME280;68680;50.764;6.120;2023-08-06T11:27:14;98693.91;;;13.37;100.00
79048;BME280;68680;50.764;6.120;2023-08-06T11:29:41;98691.50;;;13.41;100.00
79048;BME280;68680;50.764;6.120;2023-08-06T11:32:07;98692.34;;;13.46;100.00
79048;BME280;68680;50.764;6.120;2023-08-06T11:34:35;98695.00;;;13.41;100.00
79048;BME280;68680;50.764;6.120;2023-08-06T11:37:03;98699.84;;;13.44;100.00
79048;BME280;68680;50.764;6.120;2023-08-06T11:39:29;98700.59;;;13.40;100.00
79048;BME280;68680;50.764;6.120;2023-08-06T11:41:55;98696.59;;;13.37;100.00
79048;BME280;68680;50.764;6.120;2023-08-06T11:44:22;98706.22;;;13.33;100.00
79048;BME280;68680;50.764;6.120;2023-08-06T11:46:51;98708.06;;;13.28;100.00
79048;BME280;68680;50.764;6.120;2023-08-06T11:49:17;98711.56;;;13.33;100.00
79048;BME280;68680;50.764;6.120;2023-08-06T11:51:45;98708.91;;;13.33;100.00
79048;BME280;68680;50.764;6.120;2023-08-06T11:54:11;98720.91;;;13.31;100.00
79048;BME280;68680;50.764;6.120;2023-08-06T11:56:36;98716.28;;;13.16;100.00
79048;BME280;68680;50.764;6.120;2023-08-06T11:59:02;98729.41;;;13.18;100.00
79048;BME280;68680;50.764;6.120;2023-08-06T12:01:28;98718.59;;;13.07;100.00
79048;BME280;68680;50.764;6.120;2023-08-06T12:03:59;98734.94;;;13.11;100.00
79048;BME280;68680;50.764;6.120;2023-08-06T12:06:27;98732.78;;;13.03;100.00
79048;BME280;68680;50.764;6.120;2023-08-06T12:08:54;98732.81;;;13.08;100.00
79048;BME280;68680;50.764;6.120;2023-08-06T12:11:21;98731.66;;;12.99;100.00
79048;BME280;68680;50.764;6.120;2023-08-06T12:13:50;98735.97;;;13.05;100.00
79048;BME280;68680;50.764;6.120;2023-08-06T12:16:16;98742.91;;;13.01;100.00
79048;BME280;68680;50.764;6.120;2023-08-06T12:18:42;98746.44;;;13.06;100.00
79048;BME280;68680;50.764;6.120;2023-08-06T12:21:08;98742.34;;;12.99;100.00
79048;BME280;68680;50.764;6.120;2023-08-06T12:23:34;98756.84;;;13.03;100.00
79048;BME280;68680;50.764;6.120;2023-08-06T12:26:01;98750.44;;;13.04;100.00
79048;BME280;68680;50.764;6.120;2023-08-06T12:28:26;98758.84;;;13.18;100.00
79048;BME280;68680;50.764;6.120;2023-08-06T12:30:52;98765.88;;;13.24;100.00
79048;BME280;68680;50.764;6.120;2023-08-06T12:33:19;98758.41;;;13.31;100.00
79048;BME280;68680;50.764;6.120;2023-08-06T12:35:44;98770.25;;;13.40;100.00
79048;BME280;68680;50.764;6.120;2023-08-06T12:38:10;98775.59;;;13.40;100.00
79048;BME280;68680;50.764;6.120;2023-08-06T12:40:36;98775.03;;;13.33;100.00
79048;BME280;68680;50.764;6.120;2023-08-06T12:43:03;98767.75;;;13.28;100.00
79048;BME280;68680;50.764;6.120;2023-08-06T12:45:29;98775.63;;;13.08;100.00
79048;BME280;68680;50.764;6.120;2023-08-06T12:47:55;98781.25;;;13.06;100.00